createdAt,value
2024-03-18T00:01:59.794Z,50.90
2024-03-18T00:04:30.329Z,50.96
2024-03-18T00:07:00.792Z,50.93
2024-03-18T00:09:31.278Z,51.00
2024-03-18T00:12:01.876Z,51.20
2024-03-18T00:14:32.332Z,51.17
2024-03-18T00:17:02.743Z,51.07
2024-03-18T00:19:33.233Z,51.04
2024-03-18T00:22:03.908Z,51.09
2024-03-18T00:24:34.456Z,51.08
2024-03-18T00:27:05.104Z,51.08
2024-03-18T00:29:35.788Z,50.93
2024-03-18T00:32:06.552Z,50.95
2024-03-18T00:34:37.174Z,51.13
2024-03-18T00:37:07.810Z,51.10
2024-03-18T00:39:38.355Z,51.10
2024-03-18T00:42:08.729Z,51.06
2024-03-18T00:44:39.289Z,51.02
2024-03-18T00:47:10.091Z,51.25
2024-03-18T00:49:40.545Z,51.31
2024-03-18T00:52:11.055Z,51.54
2024-03-18T00:54:41.431Z,51.39
2024-03-18T00:57:12.070Z,51.48
2024-03-18T00:59:42.469Z,51.37
2024-03-18T01:02:13.052Z,51.36
2024-03-18T01:04:43.929Z,51.14
2024-03-18T01:07:14.283Z,51.29
2024-03-18T01:09:48.033Z,51.25
2024-03-18T01:12:18.483Z,51.28
2024-03-18T01:14:48.866Z,51.18
2024-03-18T01:17:19.430Z,51.28
2024-03-18T01:19:50.102Z,51.24
2024-03-18T01:22:21.238Z,51.21
2024-03-18T01:24:52.843Z,51.15
2024-03-18T01:27:23.660Z,51.18
2024-03-18T01:29:54.160Z,50.97
2024-03-18T01:32:24.969Z,51.23
2024-03-18T01:34:55.405Z,51.23
2024-03-18T01:37:25.925Z,51.26
2024-03-18T01:39:56.686Z,51.17
2024-03-18T01:42:27.163Z,51.05
2024-03-18T01:44:58.131Z,51.19
2024-03-18T01:47:28.430Z,51.29
2024-03-18T01:49:58.933Z,51.27
2024-03-18T01:52:29.397Z,51.32
2024-03-18T01:54:59.772Z,51.31
2024-03-18T01:57:31.969Z,51.37
2024-03-18T02:00:02.678Z,51.47
2024-03-18T02:02:33.110Z,51.38
2024-03-18T02:05:03.648Z,51.50
2024-03-18T02:07:34.388Z,51.41
2024-03-18T02:10:05.223Z,51.28
2024-03-18T02:12:35.688Z,51.53
2024-03-18T02:15:06.741Z,51.60
2024-03-18T02:17:37.089Z,51.46
2024-03-18T02:20:09.027Z,51.51
2024-03-18T02:22:40.341Z,51.62
2024-03-18T02:25:11.165Z,51.68
2024-03-18T02:27:41.727Z,51.60
2024-03-18T02:30:12.628Z,51.74
2024-03-18T02:32:43.884Z,51.84
2024-03-18T02:35:17.358Z,51.74
2024-03-18T02:37:47.785Z,51.61
2024-03-18T02:40:18.289Z,51.84
2024-03-18T02:42:48.766Z,51.87
2024-03-18T02:45:19.199Z,52.09
2024-03-18T02:47:49.608Z,52.33
2024-03-18T02:50:20.226Z,52.31
2024-03-18T02:52:50.789Z,52.66
2024-03-18T02:55:21.430Z,52.71
2024-03-18T02:57:51.945Z,52.88
2024-03-18T03:00:22.742Z,53.05
2024-03-18T03:02:53.134Z,53.25
2024-03-18T03:05:23.619Z,53.11
2024-03-18T03:07:54.069Z,53.13
2024-03-18T03:10:24.598Z,53.33
2024-03-18T03:12:55.906Z,53.46
2024-03-18T03:15:26.426Z,53.63
2024-03-18T03:17:57.048Z,53.59
2024-03-18T03:20:31.870Z,53.70
2024-03-18T03:23:02.447Z,53.66
2024-03-18T03:25:33.091Z,53.83
2024-03-18T03:28:03.720Z,54.15
2024-03-18T03:30:34.314Z,54.02
2024-03-18T03:33:06.123Z,54.17
2024-03-18T03:35:36.724Z,53.85
2024-03-18T03:38:07.241Z,54.37
2024-03-18T03:40:37.865Z,54.39
2024-03-18T03:43:08.399Z,54.18
2024-03-18T03:45:39.876Z,54.41
2024-03-18T03:48:10.399Z,54.25
2024-03-18T03:50:40.905Z,54.55
2024-03-18T03:53:11.344Z,54.65
2024-03-18T03:55:41.955Z,54.68
2024-03-18T03:58:12.713Z,54.83
2024-03-18T04:00:45.909Z,54.57
2024-03-18T04:03:17.419Z,54.88
2024-03-18T04:05:48.180Z,54.91
2024-03-18T04:08:18.641Z,54.85
2024-03-18T04:10:49.959Z,55.15
2024-03-18T04:13:20.332Z,55.10
2024-03-18T04:15:51.147Z,55.16
2024-03-18T04:18:22.557Z,55.28
2024-03-18T04:20:54.308Z,55.20
2024-03-18T04:23:24.780Z,55.33
2024-03-18T04:25:55.705Z,55.00
2024-03-18T04:28:26.371Z,55.08
2024-03-18T04:30:56.888Z,55.06
2024-03-18T04:33:27.432Z,55.09
2024-03-18T04:35:57.988Z,55.04
2024-03-18T04:38:31.071Z,55.16
2024-03-18T04:41:02.040Z,55.25
2024-03-18T04:43:33.074Z,55.23
2024-03-18T04:46:05.031Z,55.25
2024-03-18T04:48:36.838Z,55.27
2024-03-18T04:51:09.558Z,55.46
2024-03-18T04:53:40.130Z,55.50
2024-03-18T04:56:11.734Z,55.39
2024-03-18T04:58:43.196Z,55.34
2024-03-18T05:01:14.565Z,55.24
2024-03-18T05:03:48.676Z,55.43
2024-03-18T05:06:22.561Z,55.68
2024-03-18T05:08:53.325Z,55.35
2024-03-18T05:11:24.575Z,55.27
2024-03-18T05:13:55.044Z,55.34
2024-03-18T05:16:29.589Z,55.39
2024-03-18T05:19:00.857Z,55.52
2024-03-18T05:21:32.619Z,55.57
2024-03-18T05:24:04.961Z,55.55
2024-03-18T05:26:35.559Z,55.45
2024-03-18T05:29:07.401Z,55.36
2024-03-18T05:31:38.642Z,55.37
2024-03-18T05:34:10.647Z,55.41
2024-03-18T05:36:41.618Z,55.35
2024-03-18T05:39:12.892Z,55.35
2024-03-18T05:48:41.508Z,55.42
2024-03-18T05:51:11.848Z,55.39
2024-03-18T05:53:42.332Z,55.27
2024-03-18T05:56:13.150Z,55.20
2024-03-18T05:58:43.632Z,55.40
2024-03-18T06:01:14.478Z,55.22
2024-03-18T06:03:46.467Z,55.36
2024-03-18T06:06:17.139Z,55.16
2024-03-18T06:08:47.873Z,55.29
2024-03-18T06:11:18.356Z,55.39
2024-03-18T06:13:48.837Z,55.19
2024-03-18T06:16:19.319Z,55.25
2024-03-18T06:18:50.455Z,55.23
2024-03-18T06:21:20.933Z,55.15
2024-03-18T06:23:55.988Z,55.12
2024-03-18T06:26:26.538Z,55.19
2024-03-18T06:28:57.041Z,55.06
2024-03-18T06:31:28.291Z,55.10
2024-03-18T06:33:58.855Z,55.02
2024-03-18T06:36:29.360Z,55.03
2024-03-18T06:38:59.816Z,54.87
2024-03-18T06:41:30.380Z,55.04
2024-03-18T06:44:00.893Z,55.22
2024-03-18T06:46:32.502Z,55.09
2024-03-18T06:49:03.006Z,54.91
2024-03-18T06:51:33.497Z,55.20
2024-03-18T06:54:04.596Z,54.82
2024-03-18T06:56:35.111Z,54.74
2024-03-18T06:59:05.598Z,54.75
2024-03-18T07:01:36.554Z,54.64
2024-03-18T07:04:07.498Z,54.40
2024-03-18T07:06:38.063Z,54.64
2024-03-18T07:09:08.668Z,54.57
2024-03-18T07:11:39.285Z,54.31
2024-03-18T07:14:09.773Z,54.20
2024-03-18T07:16:40.346Z,54.23
2024-03-18T07:19:10.879Z,54.30
2024-03-18T07:21:41.377Z,54.34
2024-03-18T07:24:11.905Z,54.08
2024-03-18T07:26:42.647Z,54.20
2024-03-18T07:29:13.737Z,54.05
2024-03-18T07:31:45.026Z,53.98
2024-03-18T07:34:15.992Z,54.11
2024-03-18T07:36:46.540Z,53.95
2024-03-18T07:39:17.079Z,53.97
2024-03-18T07:41:47.640Z,53.69
2024-03-18T07:44:20.985Z,53.97
2024-03-18T07:46:51.547Z,53.82
2024-03-18T07:49:22.096Z,53.72
2024-03-18T07:51:52.527Z,53.81
2024-03-18T07:54:23.003Z,53.83
2024-03-18T07:56:53.499Z,53.95
2024-03-18T07:59:24.091Z,53.76
2024-03-18T08:01:54.617Z,53.84
2024-03-18T08:04:25.215Z,53.93
2024-03-18T08:06:55.653Z,53.80
2024-03-18T08:09:26.591Z,53.97
2024-03-18T08:11:57.157Z,53.85
2024-03-18T08:14:27.732Z,53.57
2024-03-18T08:16:59.314Z,53.64
2024-03-18T08:19:29.921Z,53.57
2024-03-18T08:22:10.365Z,53.38
2024-03-18T08:24:47.871Z,53.29
2024-03-18T08:27:18.332Z,53.31
2024-03-18T08:29:48.748Z,53.31
2024-03-18T08:32:19.453Z,53.28
2024-03-18T08:34:50.147Z,52.98
2024-03-18T08:37:21.236Z,52.97
2024-03-18T08:39:55.547Z,52.99
2024-03-18T08:42:26.345Z,52.79
2024-03-18T08:44:57.113Z,52.79
2024-03-18T08:47:27.579Z,52.78
2024-03-18T08:49:58.143Z,52.70
2024-03-18T08:52:28.616Z,52.79
2024-03-18T08:54:59.275Z,52.79
2024-03-18T08:57:30.666Z,52.85
2024-03-18T09:00:01.199Z,52.53
2024-03-18T09:02:31.877Z,52.66
2024-03-18T09:05:02.511Z,52.64
2024-03-18T09:07:33.084Z,52.51
2024-03-18T09:10:03.677Z,52.42
2024-03-18T09:12:34.193Z,52.30
2024-03-18T09:15:06.205Z,52.25
2024-03-18T09:17:36.776Z,52.27
2024-03-18T09:20:10.770Z,52.15
2024-03-18T09:22:41.323Z,52.03
2024-03-18T09:25:12.880Z,52.03
2024-03-18T09:27:43.428Z,52.09
2024-03-18T09:30:14.258Z,52.25
2024-03-18T09:32:44.694Z,52.38
2024-03-18T09:35:15.249Z,52.04
2024-03-18T09:37:45.798Z,51.87
2024-03-18T09:40:16.539Z,51.99
2024-03-18T09:42:47.139Z,52.08
2024-03-18T09:45:17.999Z,51.59
2024-03-18T09:47:49.653Z,51.69
2024-03-18T09:50:21.190Z,51.25
2024-03-18T09:52:51.686Z,51.01
2024-03-18T09:55:25.718Z,50.82
2024-03-18T09:57:56.974Z,50.78
2024-03-18T10:00:27.607Z,50.79
2024-03-18T10:03:00.457Z,50.84
2024-03-18T10:05:32.274Z,50.46
2024-03-18T10:08:03.283Z,50.26
2024-03-18T10:10:33.861Z,50.26
2024-03-18T10:13:04.510Z,50.24
2024-03-18T10:15:34.979Z,50.00
2024-03-18T10:18:07.650Z,49.52
2024-03-18T10:20:39.334Z,49.32
2024-03-18T10:23:11.073Z,49.29
2024-03-18T10:25:41.694Z,49.28
2024-03-18T10:28:13.901Z,49.39
2024-03-18T10:30:44.480Z,49.40
2024-03-18T10:33:17.679Z,49.24
2024-03-18T10:35:50.813Z,49.26
2024-03-18T10:38:25.703Z,49.31
2024-03-18T10:40:57.289Z,49.24
2024-03-18T10:43:32.128Z,48.99
2024-03-18T10:46:02.743Z,48.66
2024-03-18T10:48:33.332Z,48.66
2024-03-18T10:51:04.177Z,48.38
2024-03-18T10:53:46.465Z,48.22
2024-03-18T10:56:23.685Z,48.04
2024-03-18T10:58:54.243Z,47.92
2024-03-18T11:01:24.798Z,47.42
2024-03-18T11:03:55.507Z,47.33
2024-03-18T11:06:27.427Z,47.21
2024-03-18T11:09:02.142Z,46.79
2024-03-18T11:11:33.154Z,46.71
2024-03-18T11:14:04.515Z,46.91
2024-03-18T11:16:36.009Z,46.77
2024-03-18T11:19:07.781Z,46.74
2024-03-18T11:21:38.522Z,47.00
2024-03-18T11:24:09.160Z,47.06
2024-03-18T11:26:43.794Z,46.80
2024-03-18T11:29:14.344Z,46.23
2024-03-18T11:31:44.926Z,46.31
2024-03-18T11:34:21.309Z,46.61
2024-03-18T11:36:51.947Z,46.18
2024-03-18T11:39:23.492Z,45.83
2024-03-18T11:42:02.320Z,45.73
2024-03-18T11:44:34.018Z,45.63
2024-03-18T11:47:05.232Z,45.45
2024-03-18T11:49:35.934Z,45.48
2024-03-18T11:52:07.525Z,45.00
2024-03-18T11:54:38.075Z,45.65
2024-03-18T11:57:08.662Z,45.08
2024-03-18T11:59:39.263Z,45.07
2024-03-18T12:02:09.759Z,45.12
2024-03-18T12:04:40.181Z,44.93
2024-03-18T12:07:10.733Z,44.60
2024-03-18T12:09:41.442Z,44.03
2024-03-18T12:12:12.077Z,43.95
2024-03-18T12:14:42.634Z,43.57
2024-03-18T12:17:17.361Z,43.33
2024-03-18T12:19:56.057Z,43.15
2024-03-18T12:22:27.065Z,42.79
2024-03-18T12:25:18.245Z,42.93
2024-03-18T12:28:06.901Z,42.82
2024-03-18T12:30:38.087Z,42.93
2024-03-18T12:33:10.733Z,42.91
2024-03-18T12:35:43.804Z,42.99
2024-03-18T12:38:15.878Z,42.92
2024-03-18T12:40:46.329Z,42.84
2024-03-18T12:43:16.850Z,42.56
2024-03-18T12:45:47.770Z,42.42
2024-03-18T12:48:18.218Z,41.91
2024-03-18T12:50:48.737Z,41.39
2024-03-18T12:53:20.260Z,40.80
2024-03-18T12:55:50.749Z,40.73
2024-03-18T12:58:21.310Z,41.08
2024-03-18T13:00:52.393Z,41.42
2024-03-18T13:03:23.041Z,41.42
2024-03-18T13:05:54.267Z,41.09
2024-03-18T13:08:24.921Z,40.75
2024-03-18T13:10:55.490Z,40.65
2024-03-18T13:13:27.493Z,40.63
2024-03-18T13:15:58.211Z,40.30
2024-03-18T13:18:28.797Z,39.95
2024-03-18T13:20:59.399Z,40.08
2024-03-18T13:23:33.661Z,40.09
2024-03-18T13:26:04.784Z,40.14
2024-03-18T13:28:35.779Z,40.05
2024-03-18T13:31:06.572Z,39.61
2024-03-18T13:33:38.028Z,39.62
2024-03-18T13:36:09.091Z,39.64
2024-03-18T13:38:40.106Z,39.79
2024-03-18T13:41:14.114Z,39.22
2024-03-18T13:43:44.899Z,39.22
2024-03-18T13:46:15.394Z,39.25
2024-03-18T13:48:46.028Z,39.24
2024-03-18T13:51:16.986Z,39.40
2024-03-18T13:53:47.945Z,39.47
2024-03-18T13:56:18.461Z,38.96
2024-03-18T13:58:50.258Z,39.25
2024-03-18T14:01:21.519Z,39.09
2024-03-18T14:03:52.984Z,39.12
2024-03-18T14:06:23.444Z,39.10
2024-03-18T14:08:54.095Z,39.02
2024-03-18T14:11:24.513Z,38.97
2024-03-18T14:13:56.863Z,38.66
2024-03-18T14:16:27.485Z,38.65
2024-03-18T14:18:58.020Z,38.27
2024-03-18T14:21:28.639Z,38.27
2024-03-18T14:23:59.051Z,38.34
2024-03-18T14:26:29.494Z,38.24
2024-03-18T14:29:00.814Z,38.32
2024-03-18T14:31:32.098Z,38.24
2024-03-18T14:34:03.844Z,38.21
2024-03-18T14:36:37.433Z,37.96
2024-03-18T14:39:08.595Z,38.08
2024-03-18T14:41:39.614Z,37.93
2024-03-18T14:44:10.247Z,37.68
2024-03-18T14:46:40.740Z,37.67
2024-03-18T14:49:11.199Z,37.44
2024-03-18T14:51:41.786Z,37.21
2024-03-18T14:54:12.441Z,37.48
2024-03-18T14:56:43.094Z,37.54
2024-03-18T14:59:13.639Z,37.48
2024-03-18T15:01:44.068Z,37.39
2024-03-18T15:04:14.660Z,37.42
2024-03-18T15:06:45.277Z,37.47
2024-03-18T15:09:15.773Z,37.40
2024-03-18T15:11:46.251Z,37.28
2024-03-18T15:14:16.828Z,37.32
2024-03-18T15:16:47.415Z,37.24
2024-03-18T15:19:17.966Z,37.01
2024-03-18T15:21:50.114Z,37.03
2024-03-18T15:24:28.404Z,37.18
2024-03-18T15:27:16.509Z,37.07
2024-03-18T15:29:48.155Z,37.16
2024-03-18T15:32:18.779Z,37.11
2024-03-18T15:34:49.373Z,37.14
2024-03-18T15:37:21.117Z,37.04
2024-03-18T15:39:51.801Z,37.13
2024-03-18T15:42:22.350Z,37.11
2024-03-18T15:44:52.947Z,37.02
2024-03-18T15:47:23.445Z,36.93
2024-03-18T15:49:54.120Z,37.06
2024-03-18T15:52:24.875Z,36.95
2024-03-18T15:54:55.562Z,36.75
2024-03-18T15:57:26.146Z,36.72
2024-03-18T15:59:56.726Z,36.55
2024-03-18T16:02:28.407Z,36.54
2024-03-18T16:04:59.039Z,36.67
2024-03-18T16:07:29.432Z,36.77
2024-03-18T16:10:00.335Z,36.85
2024-03-18T16:12:30.858Z,36.78
2024-03-18T16:15:01.507Z,36.85
2024-03-18T16:17:32.127Z,37.01
2024-03-18T16:20:05.154Z,37.16
2024-03-18T16:22:35.675Z,37.36
2024-03-18T16:25:07.084Z,37.65
2024-03-18T16:27:37.658Z,37.71
2024-03-18T16:30:09.553Z,37.77
2024-03-18T16:32:40.211Z,37.83
2024-03-18T16:35:13.503Z,37.90
2024-03-18T16:37:44.092Z,38.09
2024-03-18T16:40:15.139Z,38.15
2024-03-18T16:42:45.643Z,38.31
2024-03-18T16:45:16.281Z,38.47
2024-03-18T16:47:46.807Z,38.42
2024-03-18T16:50:17.229Z,38.50
2024-03-18T16:52:47.666Z,38.57
2024-03-18T16:55:18.405Z,38.69
2024-03-18T16:57:48.832Z,38.71
2024-03-18T17:00:20.371Z,38.76
2024-03-18T17:02:50.920Z,38.85
2024-03-18T17:05:22.157Z,38.89
2024-03-18T17:07:52.686Z,39.00
2024-03-18T17:10:23.383Z,39.05
2024-03-18T17:12:54.496Z,39.10
2024-03-18T17:15:25.060Z,39.25
2024-03-18T17:17:55.759Z,39.23
2024-03-18T17:20:26.332Z,39.25
2024-03-18T17:22:56.744Z,39.48
2024-03-18T17:25:27.401Z,39.44
2024-03-18T17:27:58.004Z,39.57
2024-03-18T17:30:28.500Z,39.57
2024-03-18T17:32:59.012Z,39.63
2024-03-18T17:35:47.300Z,39.71
2024-03-18T17:38:20.198Z,39.71
2024-03-18T17:40:53.362Z,39.84
2024-03-18T17:43:25.663Z,39.89
2024-03-18T17:45:57.233Z,40.00
2024-03-18T17:48:28.183Z,40.05
2024-03-18T17:50:59.072Z,40.10
2024-03-18T17:53:29.632Z,40.17
2024-03-18T17:56:00.264Z,40.29
2024-03-18T17:58:31.250Z,40.43
2024-03-18T18:01:02.669Z,40.46
2024-03-18T18:03:33.420Z,40.62
2024-03-18T18:06:03.932Z,40.69
2024-03-18T18:08:35.117Z,40.75
2024-03-18T18:11:05.895Z,40.80
2024-03-18T18:13:36.402Z,40.86
2024-03-18T18:16:07.819Z,40.93
2024-03-18T18:18:38.777Z,41.02
2024-03-18T18:21:09.436Z,41.06
2024-03-18T18:23:39.978Z,41.15
2024-03-18T18:26:10.680Z,41.20
2024-03-18T18:28:41.182Z,41.21
2024-03-18T18:31:11.718Z,41.25
2024-03-18T18:33:42.676Z,41.31
2024-03-18T18:36:13.373Z,41.54
2024-03-18T18:38:45.891Z,41.50
2024-03-18T18:41:16.849Z,41.49
2024-03-18T18:43:47.301Z,41.64
2024-03-18T18:46:17.838Z,41.79
2024-03-18T18:48:50.866Z,41.76
2024-03-18T18:51:22.850Z,41.86
2024-03-18T18:53:54.153Z,41.86
2024-03-18T18:56:27.031Z,41.87
2024-03-18T18:58:57.675Z,41.98
2024-03-18T19:01:28.687Z,42.03
2024-03-18T19:03:59.190Z,42.16
2024-03-18T19:06:29.927Z,42.35
2024-03-18T19:09:01.279Z,42.56
2024-03-18T19:11:31.814Z,42.74
2024-03-18T19:14:02.395Z,42.87
2024-03-18T19:16:33.025Z,43.26
2024-03-18T19:19:03.548Z,43.44
2024-03-18T19:21:34.070Z,43.63
2024-03-18T19:24:06.140Z,43.64
2024-03-18T19:26:36.810Z,43.86
2024-03-18T19:29:07.538Z,43.96
2024-03-18T19:31:38.098Z,44.01
2024-03-18T19:34:08.695Z,44.12
2024-03-18T19:36:39.628Z,44.24
2024-03-18T19:39:12.909Z,44.52
2024-03-18T19:41:43.686Z,44.58
2024-03-18T19:44:18.301Z,44.60
2024-03-18T19:46:48.840Z,44.78
2024-03-18T19:49:19.905Z,45.00
2024-03-18T19:51:51.589Z,45.07
2024-03-18T19:54:22.107Z,45.16
2024-03-18T19:56:52.706Z,45.33
2024-03-18T19:59:23.179Z,45.50
2024-03-18T20:01:54.794Z,45.54
2024-03-18T20:04:27.316Z,45.75
2024-03-18T20:07:00.130Z,45.90
2024-03-18T20:09:30.693Z,46.00
2024-03-18T20:12:01.206Z,46.00
2024-03-18T20:14:31.693Z,46.14
2024-03-18T20:17:02.237Z,46.17
2024-03-18T20:19:32.740Z,46.34
2024-03-18T20:22:03.357Z,46.55
2024-03-18T20:24:33.809Z,46.51
2024-03-18T20:27:04.288Z,46.69
2024-03-18T20:29:34.855Z,46.62
2024-03-18T20:32:06.081Z,46.91
2024-03-18T20:34:36.724Z,47.00
2024-03-18T20:37:08.347Z,47.01
2024-03-18T20:39:38.858Z,47.12
2024-03-18T20:42:09.439Z,47.36
2024-03-18T20:44:39.920Z,47.40
2024-03-18T20:47:12.687Z,47.44
2024-03-18T20:49:43.161Z,47.41
2024-03-18T20:52:13.698Z,47.54
2024-03-18T20:54:45.503Z,47.65
2024-03-18T20:57:16.505Z,47.77
2024-03-18T20:59:48.511Z,47.89
2024-03-18T21:02:18.957Z,47.93
2024-03-18T21:04:50.305Z,48.12
2024-03-18T21:07:20.824Z,48.18
2024-03-18T21:09:54.260Z,48.22
2024-03-18T21:12:25.135Z,48.15
2024-03-18T21:14:55.753Z,48.38
2024-03-18T21:17:26.226Z,48.39
2024-03-18T21:19:56.801Z,48.73
2024-03-18T21:22:27.174Z,49.00
2024-03-18T21:24:57.575Z,48.87
2024-03-18T21:27:28.230Z,48.76
2024-03-18T21:29:58.791Z,48.82
2024-03-18T21:32:29.263Z,48.80
2024-03-18T21:34:59.784Z,48.88
2024-03-18T21:37:31.998Z,49.15
2024-03-18T21:40:02.484Z,49.34
2024-03-18T21:42:34.765Z,49.50
2024-03-18T21:45:06.889Z,49.65
2024-03-18T21:47:41.024Z,49.66
2024-03-18T21:50:12.429Z,49.83
2024-03-18T21:52:44.717Z,49.86
2024-03-18T21:55:15.354Z,50.02
2024-03-18T21:57:45.860Z,49.85
2024-03-18T22:00:21.508Z,50.05
2024-03-18T22:02:53.400Z,50.21
2024-03-18T22:05:24.136Z,50.30
2024-03-18T22:07:54.591Z,50.43
2024-03-18T22:10:25.122Z,50.39
2024-03-18T22:12:55.612Z,50.57
2024-03-18T22:15:26.186Z,50.63
2024-03-18T22:17:56.678Z,50.83
2024-03-18T22:20:28.623Z,50.89
2024-03-18T22:22:59.674Z,50.91
2024-03-18T22:25:30.207Z,51.06
2024-03-18T22:28:00.751Z,51.16
2024-03-18T22:30:31.298Z,51.24
2024-03-18T22:33:01.807Z,51.33
2024-03-18T22:35:32.893Z,51.52
2024-03-18T22:38:03.493Z,51.47
2024-03-18T22:40:35.860Z,51.80
2024-03-18T22:43:07.009Z,51.94
2024-03-18T22:45:37.796Z,52.09
2024-03-18T22:48:10.966Z,51.98
2024-03-18T22:50:41.472Z,52.39
2024-03-18T22:53:12.036Z,52.40
2024-03-18T22:55:42.879Z,52.50
2024-03-18T22:58:13.485Z,52.57
2024-03-18T23:00:43.983Z,52.60
2024-03-18T23:03:14.696Z,52.72
2024-03-18T23:05:46.019Z,52.73
2024-03-18T23:08:16.567Z,52.92
2024-03-18T23:10:47.392Z,52.85
2024-03-18T23:13:18.344Z,53.05
2024-03-18T23:15:48.833Z,53.29
2024-03-18T23:18:19.282Z,53.12
2024-03-18T23:20:57.243Z,53.33
2024-03-18T23:23:27.906Z,53.28
2024-03-18T23:26:02.355Z,53.50
2024-03-18T23:28:32.974Z,53.42
2024-03-18T23:31:03.511Z,53.78
2024-03-18T23:33:34.089Z,53.52
2024-03-18T23:36:06.957Z,53.58
2024-03-18T23:38:37.743Z,53.67
2024-03-18T23:41:08.321Z,53.76
2024-03-18T23:43:38.757Z,53.81
2024-03-18T23:46:10.751Z,53.99
2024-03-18T23:48:41.826Z,53.83
2024-03-18T23:51:13.691Z,53.85
2024-03-18T23:53:44.211Z,54.05
2024-03-18T23:56:14.744Z,54.02
2024-03-18T23:58:45.229Z,54.17
